Aérodrome :
LOGIN :

S'inscrire | Disclaimer

   EN    FR    IT 

 










Légende :    VFR   VFR Marginal   IFR   IFR Intensif   IFR Très Intensif
Visi : 
Plafond : 
>= 8 km
>= 3000ft
5 à 8 km
1000 à 3000 ft
1500m à 5 km
500 à 1000 ft
800 à 1500m
200 à 500 ft
< 800m
< 200 ft
Symboles :   Orages  Brouillard  Fortes neiges  Fortes précipitations  Vent > 20 kt
SIGMETs :   Divers  Orages  Givrage  Turbulence  Onde Orograph.  Cendres Volcan.







- Altitude de l'aérodrome : 194 ft


EBCV - Chièvres

DERNIER METAR :
  • 250625Z AUTO 06003KT 1200 FG OVC002/// 13/13 Q1025 AMB

METARs EXPIRÉS :
  • 250555Z AUTO 05004KT 0300 FG VV002/// 12/12 Q1025 RED
  • 250525Z AUTO 03004KT 0350 FG BKN002/// 12/11 Q1025 RED
  • 250503Z AUTO 01003KT 1500 BR NCD 11/10 Q1025 AMB
  • 250455Z AUTO 01003KT 1700 BR NCD 11/10 Q1025 YLO
  • 250442Z AUTO 01003KT 1500 BR NCD 11/10 Q1025 AMB
  • 250425Z AUTO VRB03KT 1700 BR NCD 11/10 Q1024 YLO
  • 250355Z AUTO VRB02KT 1400 BR NCD 10/09 Q1024 AMB

TAF TAF EBCV
Valide du 25 à 07h jusqu'au 25 à 16h UTC


250541Z 2507/2516 VRB02KT 2000 BR FEW005
BECMG 2507/2509 5000 BR FEW300
BECMG 2508/2510 06005KT 9999 FEW012 BY EBWM
Pas de NOTAMs connus pour ce terrain.



MET'MAP, la Météo Aéronautique d'un coup d'oeil ! - Copyright ORBIFLY Décembre 2007 - Disclaimer

ORBIFLY MET'MAP TEAM :

Programmation & Développement : Alexandra Zaïnal
Conception & Développement : Baudouin d'Aumeries
Co-Programmation & Développement : Marc-Olivier Méhu
Soutien technique & logistique : Manuel Goepfert

Contact : metmap@orbifly.com




SOURCES & CREDITS :

   NOAA